createdAt,value
2018-12-04T00:03:25.821Z,4.80
2018-12-04T00:06:06.661Z,4.80
2018-12-04T00:08:47.446Z,4.80
2018-12-04T00:11:26.592Z,4.80
2018-12-04T00:17:14.425Z,4.80
2018-12-04T00:19:55.233Z,4.80
2018-12-04T00:22:36.053Z,4.90
2018-12-04T00:25:17.264Z,4.90
2018-12-04T00:27:58.221Z,4.90
2018-12-04T00:30:39.020Z,4.90
2018-12-04T00:33:19.525Z,5.50
2018-12-04T00:36:00.706Z,6.90
2018-12-04T00:38:41.973Z,7.90
2018-12-04T00:41:23.285Z,8.00
2018-12-04T00:44:04.558Z,8.10
2018-12-04T00:46:45.672Z,8.40
2018-12-04T00:49:26.841Z,8.60
2018-12-04T00:52:08.061Z,9.10
2018-12-04T00:54:48.883Z,9.30
2018-12-04T00:57:30.151Z,9.50
2018-12-04T01:00:11.789Z,9.80
2018-12-04T01:02:52.717Z,10.00
2018-12-04T01:05:34.029Z,10.10
2018-12-04T01:08:15.147Z,10.10
2018-12-04T01:10:55.557Z,10.20
2018-12-04T01:13:36.588Z,10.40
2018-12-04T01:16:17.061Z,10.50
2018-12-04T01:18:58.098Z,10.60
2018-12-04T01:21:39.105Z,10.80
2018-12-04T01:24:18.221Z,10.90
2018-12-04T01:30:06.058Z,11.10
2018-12-04T01:32:47.133Z,11.20
2018-12-04T01:35:28.309Z,11.20
2018-12-04T01:38:09.341Z,11.20
2018-12-04T01:40:50.002Z,11.30
2018-12-04T01:43:30.462Z,11.40
2018-12-04T01:46:11.762Z,11.50
2018-12-04T01:48:52.620Z,11.60
2018-12-04T01:51:33.817Z,11.60
2018-12-04T01:54:14.703Z,11.70
2018-12-04T01:56:55.533Z,11.60
2018-12-04T01:59:34.701Z,11.50
2018-12-04T02:02:22.793Z,11.50
2018-12-04T02:05:03.788Z,11.50
2018-12-04T02:07:44.955Z,11.40
2018-12-04T02:10:25.445Z,11.30
2018-12-04T02:13:05.921Z,11.30
2018-12-04T02:15:46.646Z,11.30
2018-12-04T02:18:27.893Z,11.30
2018-12-04T02:21:09.153Z,11.20
2018-12-04T02:23:50.114Z,11.20
2018-12-04T02:26:30.925Z,11.20
2018-12-04T02:29:11.408Z,11.20
2018-12-04T02:31:52.578Z,11.10
2018-12-04T02:34:33.654Z,11.10
2018-12-04T02:37:14.577Z,11.10
2018-12-04T02:39:55.541Z,11.10
2018-12-04T02:42:36.420Z,11.10
2018-12-04T02:45:17.646Z,11.00
2018-12-04T02:47:58.696Z,10.90
2018-12-04T02:50:39.961Z,10.90
2018-12-04T02:53:20.995Z,10.90
2018-12-04T02:56:02.225Z,10.90
2018-12-04T02:58:43.538Z,10.80
2018-12-04T03:01:24.777Z,10.80
2018-12-04T03:04:05.482Z,10.70
2018-12-04T03:06:46.545Z,10.70
2018-12-04T03:09:27.952Z,10.60
2018-12-04T03:12:08.914Z,10.60
2018-12-04T03:14:50.133Z,10.50
2018-12-04T03:17:31.321Z,10.50
2018-12-04T03:20:12.240Z,10.40
2018-12-04T03:22:53.347Z,10.40
2018-12-04T03:25:34.401Z,10.50
2018-12-04T03:28:15.200Z,10.40
2018-12-04T03:30:55.657Z,10.40
2018-12-04T03:33:36.630Z,10.30
2018-12-04T03:36:17.301Z,10.20
2018-12-04T03:38:58.142Z,10.30
2018-12-04T03:41:39.265Z,10.30
2018-12-04T03:44:20.460Z,10.30
2018-12-04T03:47:01.298Z,10.20
2018-12-04T03:49:42.384Z,10.10
2018-12-04T03:52:23.605Z,10.10
2018-12-04T03:55:04.812Z,10.10
2018-12-04T03:57:46.128Z,10.00
2018-12-04T04:00:26.774Z,10.00
2018-12-04T04:03:07.262Z,10.00
2018-12-04T04:05:48.457Z,9.90
2018-12-04T04:08:29.646Z,9.90
2018-12-04T04:11:10.943Z,9.90
2018-12-04T04:13:52.026Z,9.90
2018-12-04T04:16:33.142Z,9.80
2018-12-04T04:19:14.398Z,9.70
2018-12-04T04:21:55.148Z,9.60
2018-12-04T04:24:36.472Z,9.50
2018-12-04T04:27:17.711Z,9.50
2018-12-04T04:29:56.781Z,9.50
2018-12-04T04:32:44.740Z,9.40
2018-12-04T04:35:25.903Z,9.40
2018-12-04T04:38:06.906Z,9.40
2018-12-04T04:40:47.862Z,9.40
2018-12-04T04:43:28.946Z,9.30
2018-12-04T04:46:09.866Z,9.40
2018-12-04T04:48:50.709Z,9.30
2018-12-04T04:51:31.247Z,9.30
2018-12-04T04:54:12.373Z,9.30
2018-12-04T04:56:53.511Z,9.30
2018-12-04T04:59:34.638Z,9.30
2018-12-04T05:02:15.698Z,9.30
2018-12-04T05:04:56.877Z,9.30
2018-12-04T05:07:37.637Z,9.30
2018-12-04T05:10:18.869Z,9.30
2018-12-04T05:12:59.909Z,9.30
2018-12-04T05:15:40.305Z,9.30
2018-12-04T05:18:20.845Z,9.30
2018-12-04T05:21:34.579Z,9.30
2018-12-04T05:24:03.107Z,9.30
2018-12-04T05:26:31.552Z,9.20
2018-12-04T05:29:00.017Z,9.30
2018-12-04T05:31:28.492Z,9.30
2018-12-04T05:33:56.920Z,9.30
2018-12-04T05:36:25.385Z,9.30
2018-12-04T05:38:53.841Z,9.40
2018-12-04T05:41:22.305Z,9.50
2018-12-04T05:43:50.720Z,9.50
2018-12-04T05:46:19.136Z,9.50
2018-12-04T05:48:47.591Z,9.50
2018-12-04T05:51:16.034Z,9.50
2018-12-04T05:53:45.504Z,9.50
2018-12-04T05:56:13.967Z,9.50
2018-12-04T05:58:42.611Z,9.40
2018-12-04T06:01:11.112Z,9.40
2018-12-04T06:03:40.858Z,9.40
2018-12-04T06:06:10.152Z,9.50
2018-12-04T06:08:38.770Z,9.50
2018-12-04T06:11:07.291Z,9.50
2018-12-04T06:13:35.764Z,9.60
2018-12-04T06:16:04.293Z,9.60
2018-12-04T06:18:32.731Z,9.60
2018-12-04T06:21:01.280Z,9.60
2018-12-04T06:23:30.824Z,9.60
2018-12-04T06:25:59.340Z,9.60
2018-12-04T06:28:27.816Z,9.60
2018-12-04T06:30:57.327Z,9.60
2018-12-04T06:33:26.566Z,9.60
2018-12-04T06:35:55.068Z,9.60
2018-12-04T06:38:23.616Z,9.60
2018-12-04T06:40:52.150Z,9.60
2018-12-04T06:43:20.760Z,9.60
2018-12-04T06:45:49.214Z,9.60
2018-12-04T06:48:17.680Z,9.60
2018-12-04T06:50:46.122Z,9.60
2018-12-04T06:53:14.902Z,9.60
2018-12-04T06:55:43.332Z,9.60
2018-12-04T06:58:12.876Z,9.60
2018-12-04T07:00:41.475Z,9.60
2018-12-04T07:03:09.927Z,9.60
2018-12-04T07:05:38.341Z,9.70
2018-12-04T07:08:06.796Z,9.70
2018-12-04T07:10:35.251Z,9.80
2018-12-04T07:13:03.739Z,9.80
2018-12-04T07:15:32.204Z,9.90
2018-12-04T07:18:00.715Z,9.90
2018-12-04T07:20:29.120Z,10.00
2018-12-04T07:22:57.583Z,10.00
2018-12-04T07:25:26.084Z,10.00
2018-12-04T07:27:54.521Z,10.00
2018-12-04T07:30:23.028Z,10.00
2018-12-04T07:32:51.487Z,10.00
2018-12-04T07:35:20.002Z,10.00
2018-12-04T07:37:48.461Z,10.00
2018-12-04T07:40:16.903Z,10.00
2018-12-04T07:42:45.744Z,10.00
2018-12-04T07:45:14.489Z,10.00
2018-12-04T07:47:42.961Z,10.00
2018-12-04T07:50:11.444Z,10.00
2018-12-04T07:52:39.912Z,9.90
2018-12-04T07:55:08.360Z,9.90
2018-12-04T07:57:36.840Z,9.90
2018-12-04T08:00:07.754Z,9.90
2018-12-04T08:02:36.300Z,9.80
2018-12-04T08:05:05.159Z,9.80
2018-12-04T08:07:33.619Z,9.80
2018-12-04T08:10:02.116Z,9.70
2018-12-04T08:12:30.585Z,9.80
2018-12-04T08:14:59.025Z,9.90
2018-12-04T08:17:27.455Z,9.90
2018-12-04T08:19:55.900Z,10.00
2018-12-04T08:22:24.431Z,10.00
2018-12-04T08:24:53.000Z,10.10
2018-12-04T08:27:28.424Z,10.20
2018-12-04T08:29:56.897Z,10.40
2018-12-04T08:32:25.307Z,10.50
2018-12-04T08:34:53.775Z,10.60
2018-12-04T08:37:22.248Z,10.60
2018-12-04T08:39:50.691Z,10.70
2018-12-04T08:42:19.129Z,10.80
2018-12-04T08:44:47.614Z,10.90
2018-12-04T08:47:16.052Z,10.90
2018-12-04T08:49:44.544Z,11.00
2018-12-04T08:52:12.963Z,11.00
2018-12-04T08:54:41.388Z,11.00
2018-12-04T08:57:09.872Z,11.10
2018-12-04T08:59:38.367Z,11.10
2018-12-04T09:02:06.871Z,11.10
2018-12-04T09:04:35.299Z,11.20
2018-12-04T09:07:03.791Z,11.20
2018-12-04T09:09:32.287Z,11.20
2018-12-04T09:12:00.731Z,11.20
2018-12-04T09:14:29.243Z,11.20
2018-12-04T09:16:57.668Z,11.10
2018-12-04T09:19:26.120Z,11.20
2018-12-04T09:21:54.734Z,11.20
2018-12-04T09:24:23.796Z,11.20
2018-12-04T09:26:52.540Z,11.30
2018-12-04T09:29:21.155Z,11.20
2018-12-04T09:31:49.665Z,11.20
2018-12-04T09:34:18.127Z,11.20
2018-12-04T09:36:46.549Z,11.20
2018-12-04T09:39:16.003Z,11.20
2018-12-04T09:41:44.559Z,11.10
2018-12-04T09:44:13.083Z,11.10
2018-12-04T09:46:41.572Z,11.10
2018-12-04T09:49:10.028Z,11.10
2018-12-04T09:51:38.524Z,11.00
2018-12-04T09:54:07.100Z,11.00
2018-12-04T09:56:35.555Z,11.00
2018-12-04T09:59:04.004Z,11.00
2018-12-04T10:01:32.581Z,11.10
2018-12-04T10:04:01.031Z,11.10
2018-12-04T10:06:29.503Z,11.00
2018-12-04T10:08:57.980Z,11.00
2018-12-04T10:11:26.403Z,11.00
2018-12-04T10:13:54.867Z,10.90
2018-12-04T10:16:23.283Z,11.00
2018-12-04T10:18:51.748Z,11.00
2018-12-04T10:21:20.205Z,11.00
2018-12-04T10:23:48.612Z,11.00
2018-12-04T10:26:17.060Z,11.20
2018-12-04T10:28:45.484Z,11.30
2018-12-04T10:31:14.071Z,11.40
2018-12-04T10:33:43.523Z,11.50
2018-12-04T10:36:11.988Z,11.60
2018-12-04T10:38:40.459Z,11.70
2018-12-04T10:41:08.972Z,11.80
2018-12-04T10:43:37.393Z,11.80
2018-12-04T10:46:06.811Z,11.70
2018-12-04T10:48:35.268Z,11.80
2018-12-04T10:51:03.750Z,11.80
2018-12-04T10:53:32.206Z,11.90
2018-12-04T10:56:00.672Z,11.90
2018-12-04T10:58:29.141Z,12.10
2018-12-04T11:01:00.773Z,12.10
2018-12-04T11:03:34.604Z,12.20
2018-12-04T11:06:03.194Z,12.20
2018-12-04T11:08:31.619Z,12.20
2018-12-04T11:11:00.071Z,12.10
2018-12-04T11:13:28.557Z,12.10
2018-12-04T11:15:57.068Z,12.00
2018-12-04T11:18:25.539Z,12.10
2018-12-04T11:20:54.016Z,12.20
2018-12-04T11:23:22.472Z,12.20
2018-12-04T11:25:50.931Z,12.30
2018-12-04T11:28:19.432Z,12.40
2018-12-04T11:30:48.487Z,12.60
2018-12-04T11:33:16.905Z,12.60
2018-12-04T11:35:45.404Z,12.50
2018-12-04T11:38:13.860Z,12.40
2018-12-04T11:40:42.352Z,12.40
2018-12-04T11:43:10.912Z,12.30
2018-12-04T11:45:39.372Z,12.40
2018-12-04T11:48:07.852Z,12.60
2018-12-04T11:50:36.264Z,12.70
2018-12-04T11:53:04.904Z,12.80
2018-12-04T11:55:33.335Z,13.00
2018-12-04T11:58:01.765Z,13.10
2018-12-04T12:00:34.671Z,13.10
2018-12-04T12:03:03.352Z,13.00
2018-12-04T12:05:31.816Z,12.80
2018-12-04T12:08:00.292Z,12.70
2018-12-04T12:10:28.773Z,12.50
2018-12-04T12:12:57.233Z,12.40
2018-12-04T12:15:25.768Z,12.30
2018-12-04T12:17:54.208Z,12.20
2018-12-04T12:20:22.671Z,12.10
2018-12-04T12:22:51.161Z,12.00
2018-12-04T12:25:19.591Z,11.90
2018-12-04T12:27:48.067Z,11.70
2018-12-04T12:30:16.592Z,11.70
2018-12-04T12:32:45.007Z,11.60
2018-12-04T12:35:13.484Z,11.50
2018-12-04T12:37:41.907Z,11.50
2018-12-04T12:40:10.602Z,11.40
2018-12-04T12:42:39.053Z,11.30
2018-12-04T12:45:09.571Z,11.30
2018-12-04T12:47:38.005Z,11.20
2018-12-04T12:50:08.477Z,11.10
2018-12-04T12:52:36.940Z,11.00
2018-12-04T12:55:06.027Z,10.90
2018-12-04T12:57:34.495Z,10.80
2018-12-04T13:00:03.090Z,10.70
2018-12-04T13:02:31.683Z,10.60
2018-12-04T13:05:00.474Z,10.50
2018-12-04T13:07:28.904Z,10.40
2018-12-04T13:09:57.363Z,10.30
2018-12-04T13:12:25.800Z,10.20
2018-12-04T13:14:54.255Z,10.20
2018-12-04T13:17:22.689Z,10.10
2018-12-04T13:19:51.233Z,10.10
2018-12-04T13:22:19.643Z,10.00
2018-12-04T13:24:49.246Z,10.00
2018-12-04T13:27:17.690Z,10.00
2018-12-04T13:29:46.137Z,9.90
2018-12-04T13:32:14.548Z,9.90
2018-12-04T13:34:43.161Z,9.90
2018-12-04T13:37:11.572Z,9.80
2018-12-04T13:39:40.008Z,9.80
2018-12-04T13:42:08.610Z,9.80
2018-12-04T13:44:37.166Z,9.80
2018-12-04T13:47:05.707Z,9.70
2018-12-04T13:49:34.140Z,9.70
2018-12-04T13:52:02.717Z,9.70
2018-12-04T13:54:31.159Z,9.80
2018-12-04T13:56:59.604Z,9.80
2018-12-04T13:59:28.024Z,9.80
2018-12-04T14:01:56.487Z,9.80
2018-12-04T14:04:24.907Z,9.80
2018-12-04T14:06:53.375Z,9.80
2018-12-04T14:09:26.000Z,9.80
2018-12-04T14:11:52.931Z,9.80
2018-12-04T14:14:21.527Z,9.80
2018-12-04T14:16:50.181Z,9.80
2018-12-04T14:19:18.619Z,9.80
2018-12-04T14:21:46.324Z,9.70
2018-12-04T14:24:14.772Z,9.60
2018-12-04T14:26:43.327Z,9.60
2018-12-04T14:29:11.880Z,9.50
2018-12-04T14:31:40.360Z,9.50
2018-12-04T14:34:08.892Z,9.40
2018-12-04T14:36:37.450Z,9.60
2018-12-04T14:39:09.151Z,10.00
2018-12-04T14:41:38.560Z,10.00
2018-12-04T14:44:07.291Z,10.00
2018-12-04T14:46:35.751Z,9.90
2018-12-04T14:49:04.267Z,9.70
2018-12-04T14:51:32.744Z,9.60
2018-12-04T14:54:01.174Z,9.50
2018-12-04T14:56:29.715Z,9.40
2018-12-04T14:58:58.258Z,9.40
2018-12-04T15:01:26.676Z,9.30
2018-12-04T15:03:55.143Z,9.20
2018-12-04T15:06:24.197Z,9.10
2018-12-04T15:08:52.664Z,9.10
2018-12-04T15:11:21.167Z,9.00
2018-12-04T15:13:50.846Z,9.00
2018-12-04T15:16:19.546Z,9.00
2018-12-04T15:18:48.212Z,9.00
2018-12-04T15:21:16.772Z,8.90
2018-12-04T15:23:45.263Z,8.90
2018-12-04T15:26:13.700Z,8.80
2018-12-04T15:28:42.220Z,8.80
2018-12-04T15:31:10.690Z,8.80
2018-12-04T15:33:39.320Z,8.80
2018-12-04T15:36:07.928Z,8.80
2018-12-04T15:38:36.450Z,8.80
2018-12-04T15:41:05.152Z,8.80
2018-12-04T15:43:33.725Z,8.80
2018-12-04T15:46:02.215Z,8.70
2018-12-04T15:48:30.696Z,8.70
2018-12-04T15:51:00.119Z,8.70
2018-12-04T15:53:29.421Z,8.60
2018-12-04T15:55:57.981Z,8.60
2018-12-04T15:58:26.400Z,8.60
2018-12-04T16:00:55.155Z,8.60
2018-12-04T16:03:23.587Z,8.60
2018-12-04T16:05:52.011Z,8.60
2018-12-04T16:08:20.514Z,8.60
2018-12-04T16:10:48.927Z,8.50
2018-12-04T16:13:17.403Z,8.50
2018-12-04T16:15:45.840Z,8.50
2018-12-04T16:18:14.413Z,8.50
2018-12-04T16:20:42.875Z,8.50
2018-12-04T16:23:11.331Z,8.50
2018-12-04T16:25:39.756Z,8.50
2018-12-04T16:28:08.172Z,8.50
2018-12-04T16:30:36.652Z,8.50
2018-12-04T16:33:05.140Z,8.50
2018-12-04T16:35:33.635Z,8.40
2018-12-04T16:38:02.172Z,8.40
2018-12-04T16:40:30.614Z,8.30
2018-12-04T16:42:59.823Z,8.30
2018-12-04T16:45:29.688Z,8.20
2018-12-04T16:47:58.896Z,8.20
2018-12-04T16:50:27.437Z,8.20
2018-12-04T16:52:55.863Z,8.20
2018-12-04T16:55:24.511Z,8.20
2018-12-04T16:57:53.041Z,8.20
2018-12-04T17:00:22.488Z,8.20
2018-12-04T17:02:50.913Z,8.20
2018-12-04T17:05:19.443Z,8.10
2018-12-04T17:07:48.005Z,8.20
2018-12-04T17:10:22.416Z,8.20
2018-12-04T17:12:48.056Z,8.20
2018-12-04T17:15:16.505Z,8.20
2018-12-04T17:17:45.007Z,8.30
2018-12-04T17:20:13.991Z,8.40
2018-12-04T17:22:42.455Z,8.40
2018-12-04T17:25:10.973Z,8.40
2018-12-04T17:27:39.407Z,8.40
2018-12-04T17:30:09.987Z,8.30
2018-12-04T17:32:38.569Z,8.30
2018-12-04T17:35:07.200Z,8.20
2018-12-04T17:37:36.629Z,8.20
2018-12-04T17:40:06.352Z,8.10
2018-12-04T17:42:34.942Z,8.00
2018-12-04T17:45:03.475Z,8.00
2018-12-04T17:47:31.959Z,8.00
2018-12-04T17:50:01.596Z,8.00
2018-12-04T17:52:30.942Z,8.00
2018-12-04T17:55:00.423Z,7.90
2018-12-04T17:57:28.864Z,7.90
2018-12-04T17:59:57.380Z,7.80
2018-12-04T18:02:25.848Z,7.80
2018-12-04T18:04:54.304Z,7.80
2018-12-04T18:07:22.831Z,7.70
2018-12-04T18:09:51.280Z,7.70
2018-12-04T18:12:19.789Z,7.70
2018-12-04T18:14:48.367Z,7.60
2018-12-04T18:17:16.856Z,7.60
2018-12-04T18:19:45.300Z,7.60
2018-12-04T18:22:13.834Z,7.60
2018-12-04T18:24:42.300Z,7.50
2018-12-04T18:27:10.784Z,7.50
2018-12-04T18:29:39.264Z,7.50
2018-12-04T18:32:07.832Z,7.40
2018-12-04T18:34:36.357Z,7.40
2018-12-04T18:37:04.923Z,7.30
2018-12-04T18:39:33.456Z,7.30
2018-12-04T18:42:02.040Z,7.20
2018-12-04T18:44:31.560Z,7.20
2018-12-04T18:47:00.139Z,7.10
2018-12-04T18:49:29.785Z,7.00
2018-12-04T18:51:58.272Z,7.00
2018-12-04T18:54:27.268Z,7.00
2018-12-04T18:56:55.851Z,7.00
2018-12-04T18:59:24.348Z,6.90
2018-12-04T19:01:52.982Z,6.90
2018-12-04T19:04:21.564Z,6.80
2018-12-04T19:06:51.259Z,6.80
2018-12-04T19:09:19.772Z,6.80
2018-12-04T19:11:48.518Z,6.80
2018-12-04T19:14:19.003Z,6.80
2018-12-04T19:16:49.564Z,6.80
2018-12-04T19:19:18.132Z,6.70
2018-12-04T19:21:47.047Z,6.70
2018-12-04T19:24:15.679Z,6.60
2018-12-04T19:26:44.357Z,6.50
2018-12-04T19:29:12.884Z,6.50
2018-12-04T19:31:41.579Z,6.40
2018-12-04T19:34:11.369Z,6.40
2018-12-04T19:36:40.524Z,6.30
2018-12-04T19:39:09.896Z,6.30
2018-12-04T19:41:38.755Z,6.30
2018-12-04T19:44:07.451Z,6.20
2018-12-04T19:46:36.316Z,6.20
2018-12-04T19:49:06.011Z,6.20
2018-12-04T19:51:34.961Z,6.20
2018-12-04T19:54:05.091Z,6.10
2018-12-04T19:56:33.896Z,6.10
2018-12-04T19:59:02.686Z,6.10
2018-12-04T20:01:31.517Z,6.10
2018-12-04T20:04:00.230Z,6.10
2018-12-04T20:06:29.077Z,6.10
2018-12-04T20:08:59.925Z,6.00
2018-12-04T20:11:28.549Z,6.00
2018-12-04T20:13:57.436Z,6.00
2018-12-04T20:16:26.199Z,5.90
2018-12-04T20:18:54.922Z,5.90
2018-12-04T20:21:24.718Z,5.90
2018-12-04T20:23:53.480Z,5.90
2018-12-04T20:26:22.152Z,5.90
2018-12-04T20:28:50.715Z,5.90
2018-12-04T20:31:20.376Z,5.90
2018-12-04T20:33:49.949Z,5.90
2018-12-04T20:36:18.548Z,5.90
2018-12-04T20:38:47.308Z,5.90
2018-12-04T20:41:15.800Z,5.80
2018-12-04T20:43:44.403Z,5.80
2018-12-04T20:47:42.405Z,5.90
2018-12-04T20:50:11.879Z,5.90
2018-12-04T20:52:40.356Z,5.90
2018-12-04T20:55:09.251Z,5.80
2018-12-04T20:57:38.444Z,5.80
2018-12-04T21:00:09.152Z,5.90
2018-12-04T21:02:37.825Z,5.90
2018-12-04T21:05:06.707Z,6.00
2018-12-04T21:07:36.295Z,6.20
2018-12-04T21:10:05.943Z,6.30
2018-12-04T21:12:34.442Z,6.20
2018-12-04T21:15:02.943Z,6.10
2018-12-04T21:17:31.373Z,6.00
2018-12-04T21:19:59.916Z,5.90
2018-12-04T21:22:28.396Z,5.80
2018-12-04T21:24:56.850Z,5.70
2018-12-04T21:27:30.577Z,5.60
2018-12-04T21:30:04.412Z,5.70
2018-12-04T21:32:38.303Z,5.90
2018-12-04T21:35:12.527Z,6.10
2018-12-04T21:37:46.432Z,6.00
2018-12-04T21:40:20.376Z,5.90
2018-12-04T21:42:54.366Z,5.90
2018-12-04T21:46:26.042Z,5.80
2018-12-04T21:48:54.574Z,5.70
2018-12-04T21:51:23.164Z,5.60
2018-12-04T21:53:51.599Z,5.50
2018-12-04T21:56:20.125Z,5.40
2018-12-04T21:58:48.700Z,5.40
2018-12-04T22:01:17.180Z,5.40
2018-12-04T22:03:45.732Z,5.40
2018-12-04T22:06:14.205Z,5.40
2018-12-04T22:08:42.632Z,5.40
2018-12-04T22:11:11.065Z,5.40
2018-12-04T22:13:39.523Z,5.40
2018-12-04T22:16:08.036Z,5.30
2018-12-04T22:18:36.564Z,5.20
2018-12-04T22:21:05.039Z,5.20
2018-12-04T22:23:33.509Z,5.10
2018-12-04T22:26:01.963Z,5.10
2018-12-04T22:28:30.431Z,5.10
2018-12-04T22:30:58.938Z,5.00
2018-12-04T22:33:27.445Z,5.00
2018-12-04T22:35:57.404Z,4.90
2018-12-04T22:38:25.863Z,4.90
2018-12-04T22:40:54.356Z,4.90
2018-12-04T22:43:22.865Z,4.90
2018-12-04T22:45:51.298Z,4.90
2018-12-04T22:48:19.760Z,4.80
2018-12-04T22:50:48.179Z,4.80
2018-12-04T22:54:19.842Z,4.80
2018-12-04T22:56:48.308Z,4.90
2018-12-04T22:59:17.761Z,4.90
2018-12-04T23:01:46.351Z,4.80
2018-12-04T23:04:14.959Z,4.80
2018-12-04T23:06:43.437Z,4.80
2018-12-04T23:09:11.856Z,4.80
2018-12-04T23:11:40.288Z,4.80
2018-12-04T23:14:08.911Z,4.80
2018-12-04T23:16:37.328Z,4.80
2018-12-04T23:19:06.037Z,4.80
2018-12-04T23:21:34.492Z,4.80
2018-12-04T23:24:02.975Z,4.90
2018-12-04T23:26:31.415Z,4.80
2018-12-04T23:28:59.885Z,4.80
2018-12-04T23:31:28.320Z,4.80
2018-12-04T23:33:56.836Z,4.80
2018-12-04T23:36:25.263Z,4.80
2018-12-04T23:38:53.724Z,4.80
2018-12-04T23:41:22.155Z,4.70
2018-12-04T23:43:50.619Z,4.70
2018-12-04T23:46:19.051Z,4.70
2018-12-04T23:49:50.876Z,4.60
2018-12-04T23:52:19.327Z,4.60
2018-12-04T23:54:47.747Z,4.60
2018-12-04T23:57:16.207Z,4.60
2018-12-04T23:59:44.754Z,4.60
